Time;durP1;ratioP1;P1;durP2;ratioP2;P2;SDS_P1;SDS_P2;PMS_P1;PMS_P2;Temp;Humidity;BMP_temperature;BMP_pressure;BME280_temperature;BME280_humidity;BME280_pressure;Samples;Min_cycle;Max_cycle;Signal;HPM_P1;HPM_P2
2023/03/02 00:01:25;;;;;;;34.90;19.65;;;4.00;74.50;;;;;;5012226;28;20041;-57
2023/03/02 00:03:51;;;;;;;33.58;18.30;;;4.00;74.50;;;;;;5013376;28;20087;-60
2023/03/02 00:06:17;;;;;;;31.77;18.35;;;4.00;74.40;;;;;;5014270;28;20130;-60
2023/03/02 00:08:44;;;;;;;33.88;18.77;;;4.00;74.50;;;;;;5011415;28;20069;-59
2023/03/02 00:11:10;;;;;;;35.03;19.17;;;3.90;74.50;;;;;;5008143;28;20034;-60
2023/03/02 00:13:36;;;;;;;31.83;18.45;;;4.00;74.70;;;;;;5010878;28;20041;-60
2023/03/02 00:16:02;;;;;;;33.08;17.77;;;4.00;74.60;;;;;;5011105;28;20030;-59
2023/03/02 00:18:28;;;;;;;34.60;18.65;;;4.00;74.60;;;;;;5008651;28;20034;-57
2023/03/02 00:20:53;;;;;;;30.77;17.83;;;4.00;74.80;;;;;;5006951;28;20080;-59
2023/03/02 00:23:19;;;;;;;37.05;18.63;;;3.90;74.60;;;;;;5008688;28;20037;-58
2023/03/02 00:25:44;;;;;;;35.58;18.88;;;3.90;74.80;;;;;;5005169;28;20041;-59
2023/03/02 00:28:10;;;;;;;35.22;19.50;;;3.90;74.80;;;;;;5005705;28;20072;-59
2023/03/02 00:30:37;;;;;;;34.30;18.27;;;3.90;74.80;;;;;;5005790;28;20033;-60
2023/03/02 00:33:03;;;;;;;32.90;17.55;;;3.90;74.90;;;;;;5004073;28;20575;-59
2023/03/02 00:35:28;;;;;;;30.05;18.15;;;3.90;74.90;;;;;;5011238;28;20030;-61
2023/03/02 00:37:54;;;;;;;32.05;17.70;;;3.90;75.10;;;;;;5006050;28;20076;-59
2023/03/02 00:40:20;;;;;;;36.08;18.02;;;3.90;75.20;;;;;;5012197;28;20607;-60
2023/03/02 00:42:45;;;;;;;32.17;17.90;;;3.90;75.10;;;;;;5004489;28;20046;-58
2023/03/02 00:45:11;;;;;;;32.60;17.90;;;3.90;75.20;;;;;;5004361;28;20045;-59
2023/03/02 00:47:37;;;;;;;32.00;18.30;;;3.90;75.20;;;;;;5007151;28;20065;-59
2023/03/02 00:50:05;;;;;;;31.15;17.17;;;3.90;75.20;;;;;;5007962;28;20502;-59
2023/03/02 00:52:32;;;;;;;33.60;18.05;;;3.90;75.20;;;;;;5012074;28;20033;-58
2023/03/02 00:54:58;;;;;;;29.52;16.90;;;4.00;75.20;;;;;;5008597;28;20516;-60
2023/03/02 00:57:24;;;;;;;30.58;17.33;;;3.90;75.20;;;;;;5009061;28;20121;-58
2023/03/02 00:59:49;;;;;;;31.35;16.92;;;3.90;75.20;;;;;;5009729;28;20034;-61
2023/03/02 01:02:15;;;;;;;30.38;16.83;;;4.00;75.20;;;;;;5010006;28;20114;-60
2023/03/02 01:04:42;;;;;;;32.03;17.35;;;4.00;75.20;;;;;;5011117;28;20177;-59
2023/03/02 01:07:15;;;;;;;31.15;16.75;;;4.00;75.30;;;;;;5012632;28;20049;-60
2023/03/02 01:09:43;;;;;;;31.08;17.30;;;4.00;75.30;;;;;;5015469;28;20133;-60
2023/03/02 01:12:10;;;;;;;29.80;17.63;;;4.00;75.70;;;;;;5009566;28;20041;-59
2023/03/02 01:14:43;;;;;;;34.42;17.15;;;3.90;75.20;;;;;;5008983;28;20502;-59
2023/03/02 01:17:09;;;;;;;33.65;17.65;;;4.00;75.50;;;;;;5012012;28;20034;-60
2023/03/02 01:19:36;;;;;;;28.92;16.25;;;4.00;75.30;;;;;;5009906;28;20034;-60
2023/03/02 01:22:02;;;;;;;27.85;16.23;;;4.00;75.30;;;;;;5002445;28;20080;-59
2023/03/02 01:24:27;;;;;;;30.27;16.50;;;4.00;75.40;;;;;;5006028;28;20100;-58
2023/03/02 01:26:54;;;;;;;27.60;16.88;;;4.00;75.40;;;;;;5004199;28;20060;-60
2023/03/02 01:29:19;;;;;;;29.58;16.33;;;4.00;75.40;;;;;;5002813;28;20037;-59
2023/03/02 01:31:45;;;;;;;29.77;17.02;;;3.90;75.40;;;;;;5002519;28;20042;-58
2023/03/02 01:34:10;;;;;;;28.67;15.75;;;4.00;75.60;;;;;;5005250;28;20053;-60
2023/03/02 01:36:36;;;;;;;31.17;16.67;;;4.00;75.70;;;;;;5001972;28;20033;-59
2023/03/02 01:39:01;;;;;;;29.95;16.02;;;4.00;75.70;;;;;;5005169;28;20050;-59
2023/03/02 01:41:27;;;;;;;29.48;16.38;;;4.00;75.60;;;;;;5008375;28;20041;-59
2023/03/02 01:43:53;;;;;;;33.75;16.40;;;4.00;75.70;;;;;;5012780;28;20050;-60
2023/03/02 01:46:22;;;;;;;30.90;16.70;;;4.00;75.60;;;;;;5011102;28;20045;-59
2023/03/02 01:48:49;;;;;;;29.83;16.60;;;4.00;75.70;;;;;;5010832;28;20049;-59
2023/03/02 01:51:19;;;;;;;28.52;15.85;;;4.00;75.70;;;;;;5007388;28;20041;-58
2023/03/02 01:53:47;;;;;;;27.85;15.45;;;4.00;75.70;;;;;;5013238;28;20042;-60
2023/03/02 01:56:16;;;;;;;31.02;17.52;;;4.00;75.70;;;;;;5010303;28;20718;-59
2023/03/02 01:58:42;;;;;;;31.92;15.88;;;4.00;75.70;;;;;;5012207;28;20037;-60
2023/03/02 02:01:14;;;;;;;28.67;16.02;;;4.00;75.80;;;;;;5020193;28;20142;-59
2023/03/02 02:03:42;;;;;;;33.22;16.67;;;4.00;75.80;;;;;;5013991;28;20030;-61
2023/03/02 02:06:16;;;;;;;31.08;16.67;;;4.00;75.90;;;;;;5014334;28;21545;-58
2023/03/02 02:08:43;;;;;;;28.73;15.88;;;4.00;76.00;;;;;;5009699;28;20033;-58
2023/03/02 02:11:10;;;;;;;28.90;15.63;;;4.00;75.90;;;;;;5013962;28;20022;-60
2023/03/02 02:13:35;;;;;;;28.33;15.38;;;4.00;75.90;;;;;;5011060;28;20034;-60
2023/03/02 02:16:01;;;;;;;28.48;16.05;;;4.00;75.90;;;;;;5009264;28;20087;-60
2023/03/02 02:18:26;;;;;;;28.95;16.15;;;4.00;75.90;;;;;;5005587;28;20037;-59
2023/03/02 02:20:54;;;;;;;30.88;15.85;;;4.00;75.90;;;;;;5009751;28;20126;-59
2023/03/02 02:23:33;;;;;;;30.23;17.00;;;4.00;75.90;;;;;;5018870;28;20049;-60
2023/03/02 02:26:17;;;;;;;33.03;17.15;;;4.00;76.00;;;;;;5018371;28;20131;-59
2023/03/02 02:28:47;;;;;;;30.00;15.85;;;4.00;75.90;;;;;;5011979;28;20024;-59
2023/03/02 02:31:34;;;;;;;32.60;16.08;;;4.00;75.90;;;;;;5006222;28;20323;-59
2023/03/02 02:34:11;;;;;;;31.23;15.85;;;4.00;76.10;;;;;;5005415;28;20038;-60
2023/03/02 02:36:40;;;;;;;26.25;15.30;;;4.00;76.00;;;;;;5011388;28;20037;-60
2023/03/02 02:39:12;;;;;;;27.08;15.75;;;4.00;76.00;;;;;;5014331;28;20061;-59
2023/03/02 02:41:39;;;;;;;28.83;16.00;;;4.00;76.00;;;;;;5012226;28;20037;-59
2023/03/02 02:44:05;;;;;;;27.38;15.23;;;4.00;76.10;;;;;;5012818;28;20049;-59
2023/03/02 02:46:32;;;;;;;28.60;15.93;;;4.00;76.10;;;;;;5012779;28;20064;-60
2023/03/02 02:48:59;;;;;;;26.55;15.27;;;4.00;76.20;;;;;;5007511;28;20247;-59
2023/03/02 02:51:28;;;;;;;29.65;16.35;;;3.90;76.00;;;;;;5011664;28;20030;-60
2023/03/02 02:53:59;;;;;;;30.20;17.17;;;4.00;76.20;;;;;;5013389;28;20161;-58
2023/03/02 02:56:29;;;;;;;28.85;15.43;;;4.00;76.20;;;;;;5013353;28;20057;-59
2023/03/02 02:58:58;;;;;;;30.80;16.15;;;4.00;76.10;;;;;;5013079;28;20045;-60
2023/03/02 03:01:24;;;;;;;27.95;15.90;;;4.00;76.10;;;;;;5009885;28;20037;-59
2023/03/02 03:03:53;;;;;;;27.98;16.35;;;4.00;76.00;;;;;;5013761;28;20129;-61
2023/03/02 03:06:24;;;;;;;30.10;16.15;;;4.00;76.00;;;;;;5013238;28;20034;-60
2023/03/02 03:08:54;;;;;;;29.40;15.88;;;4.10;76.00;;;;;;5012590;28;20041;-60
2023/03/02 03:11:29;;;;;;;26.83;15.52;;;4.10;76.00;;;;;;5009657;28;20037;-61
2023/03/02 03:14:03;;;;;;;28.13;15.73;;;4.00;75.90;;;;;;5011395;28;20605;-60
2023/03/02 03:16:30;;;;;;;27.33;16.15;;;4.00;76.00;;;;;;5011717;28;20045;-60
2023/03/02 03:19:02;;;;;;;30.25;16.77;;;4.10;75.90;;;;;;5011330;28;20034;-60
2023/03/02 03:21:27;;;;;;;29.00;15.77;;;4.00;75.90;;;;;;5010174;28;20038;-60
2023/03/02 03:23:53;;;;;;;29.67;16.17;;;4.00;76.00;;;;;;5015422;28;20045;-58
2023/03/02 03:26:19;;;;;;;30.73;15.82;;;4.00;76.00;;;;;;5012666;28;20239;-59
2023/03/02 03:28:45;;;;;;;30.08;15.57;;;4.00;76.00;;;;;;5010029;28;20049;-60
2023/03/02 03:31:11;;;;;;;31.08;16.65;;;4.10;76.00;;;;;;5011862;28;20505;-60
2023/03/02 03:33:36;;;;;;;29.27;15.20;;;4.00;76.00;;;;;;5006090;28;20069;-59
2023/03/02 03:36:02;;;;;;;28.50;15.85;;;4.10;76.10;;;;;;5012858;28;20037;-59
2023/03/02 03:38:29;;;;;;;32.33;15.68;;;4.10;76.20;;;;;;5012210;28;20857;-58
2023/03/02 03:40:54;;;;;;;28.95;15.52;;;4.10;76.20;;;;;;5008870;28;20037;-60
2023/03/02 03:43:20;;;;;;;30.70;15.38;;;4.10;76.20;;;;;;5009352;28;20401;-59
2023/03/02 03:45:46;;;;;;;30.38;16.00;;;4.10;76.20;;;;;;5009238;28;20037;-61
2023/03/02 03:48:11;;;;;;;29.15;16.13;;;4.10;76.20;;;;;;5012640;28;20069;-60
2023/03/02 03:50:38;;;;;;;29.05;15.48;;;4.10;76.10;;;;;;5008584;28;20527;-59
2023/03/02 03:53:04;;;;;;;30.83;15.75;;;4.20;76.10;;;;;;5010557;28;20052;-59
2023/03/02 03:55:30;;;;;;;27.15;16.05;;;4.10;76.00;;;;;;5008985;28;20037;-58
2023/03/02 03:57:55;;;;;;;29.83;16.63;;;4.10;76.00;;;;;;5009357;28;20061;-59
2023/03/02 04:00:22;;;;;;;29.85;15.52;;;4.20;76.10;;;;;;5012379;28;20038;-60
2023/03/02 04:02:49;;;;;;;32.42;16.63;;;4.10;76.00;;;;;;5008698;28;20560;-59
2023/03/02 04:05:15;;;;;;;31.35;16.98;;;4.20;76.00;;;;;;5006698;28;20045;-58
2023/03/02 04:07:40;;;;;;;29.80;16.63;;;4.20;76.00;;;;;;5009104;28;20409;-59
2023/03/02 04:10:08;;;;;;;32.75;17.60;;;4.20;76.00;;;;;;5010758;28;20042;-59
2023/03/02 04:12:37;;;;;;;31.27;17.02;;;4.20;76.00;;;;;;5001537;28;20030;-60
2023/03/02 04:15:04;;;;;;;32.97;17.50;;;4.20;76.10;;;;;;5006434;28;20034;-60
2023/03/02 04:17:30;;;;;;;30.90;17.80;;;4.10;76.00;;;;;;5007724;28;20457;-59
2023/03/02 04:19:55;;;;;;;35.65;18.90;;;4.10;76.00;;;;;;5004993;28;21164;-58
2023/03/02 04:22:21;;;;;;;33.00;17.70;;;4.20;76.10;;;;;;5013762;28;20030;-60
2023/03/02 04:24:50;;;;;;;31.92;18.08;;;4.10;76.00;;;;;;5015254;28;20084;-59
2023/03/02 04:27:16;;;;;;;33.85;18.45;;;4.10;76.10;;;;;;5015469;28;20025;-59
2023/03/02 04:29:43;;;;;;;36.70;18.67;;;4.10;76.10;;;;;;5005854;28;20501;-59
2023/03/02 04:32:09;;;;;;;36.45;17.83;;;4.10;76.20;;;;;;5004915;28;20045;-58
2023/03/02 04:34:34;;;;;;;31.90;17.77;;;4.10;76.20;;;;;;5008140;28;20414;-60
2023/03/02 04:37:00;;;;;;;38.17;19.67;;;4.20;76.30;;;;;;5009282;28;20050;-60
2023/03/02 04:39:26;;;;;;;37.80;20.38;;;4.10;76.20;;;;;;5008765;28;20046;-61
2023/03/02 04:41:52;;;;;;;36.60;20.20;;;4.10;76.30;;;;;;5006880;28;20040;-59
2023/03/02 04:44:18;;;;;;;37.58;19.30;;;4.10;76.30;;;;;;5010952;28;20046;-61
2023/03/02 04:46:45;;;;;;;42.53;19.88;;;4.10;76.30;;;;;;5009827;28;20740;-59
2023/03/02 04:49:12;;;;;;;42.40;20.42;;;4.10;76.30;;;;;;5004292;28;20038;-60
2023/03/02 04:51:41;;;;;;;36.58;20.15;;;4.10;76.40;;;;;;5004137;28;20414;-58
2023/03/02 04:54:19;;;;;;;37.95;20.38;;;4.00;76.40;;;;;;5006893;28;20489;-59
2023/03/02 04:56:50;;;;;;;29.98;16.88;;;4.00;76.60;;;;;;5010497;28;20046;-59
2023/03/02 04:59:22;;;;;;;32.47;17.30;;;4.10;76.60;;;;;;5008421;28;20310;-59
2023/03/02 05:01:48;;;;;;;38.65;19.23;;;4.00;76.50;;;;;;5009411;28;20504;-60
2023/03/02 05:04:14;;;;;;;38.42;18.50;;;4.10;76.60;;;;;;5005260;28;20233;-60
2023/03/02 05:06:40;;;;;;;35.28;17.65;;;4.00;76.50;;;;;;5006220;28;20045;-58
2023/03/02 05:09:06;;;;;;;39.42;18.38;;;4.00;76.40;;;;;;5007854;28;20496;-59
2023/03/02 05:11:32;;;;;;;36.97;17.88;;;4.00;76.40;;;;;;5009399;28;20030;-57
2023/03/02 05:14:00;;;;;;;38.78;18.50;;;4.00;76.40;;;;;;5003923;28;20080;-61
2023/03/02 05:16:28;;;;;;;35.15;17.40;;;4.00;76.40;;;;;;5006705;28;20473;-58
2023/03/02 05:18:54;;;;;;;44.45;19.30;;;4.00;76.60;;;;;;5011189;28;20030;-58
2023/03/02 05:21:20;;;;;;;44.20;19.98;;;4.00;76.40;;;;;;5013687;28;20106;-60
2023/03/02 05:23:46;;;;;;;40.15;18.85;;;3.90;76.50;;;;;;5007410;28;20072;-59
2023/03/02 05:26:13;;;;;;;38.80;18.42;;;3.90;76.60;;;;;;5011843;28;20494;-57
2023/03/02 05:28:39;;;;;;;42.95;19.10;;;4.00;76.60;;;;;;5012026;28;20036;-60
2023/03/02 05:31:05;;;;;;;42.40;19.23;;;3.90;76.70;;;;;;5000951;28;20108;-60
2023/03/02 05:33:31;;;;;;;54.40;22.60;;;3.90;76.70;;;;;;5007290;28;20133;-60
2023/03/02 05:35:56;;;;;;;61.95;23.00;;;3.90;76.70;;;;;;5014281;28;20125;-59
2023/03/02 05:38:22;;;;;;;39.28;18.77;;;3.90;76.70;;;;;;5009215;28;20066;-59
2023/03/02 05:40:48;;;;;;;40.97;19.20;;;3.90;76.70;;;;;;5009626;28;20029;-59
2023/03/02 05:43:16;;;;;;;58.95;23.20;;;3.90;76.70;;;;;;5017309;28;20037;-59
2023/03/02 05:45:42;;;;;;;46.85;21.52;;;3.90;76.70;;;;;;5014496;28;20059;-59
2023/03/02 05:48:09;;;;;;;43.65;20.15;;;3.90;76.70;;;;;;5014733;28;20583;-61
2023/03/02 05:50:34;;;;;;;38.35;18.83;;;3.90;76.70;;;;;;5015373;28;20460;-58
2023/03/02 05:53:01;;;;;;;35.38;18.00;;;3.90;76.90;;;;;;5019245;28;20037;-60
2023/03/02 05:55:27;;;;;;;33.03;17.48;;;3.90;77.10;;;;;;5012770;28;20089;-60
2023/03/02 05:57:53;;;;;;;34.90;17.67;;;3.90;76.90;;;;;;5015771;28;20033;-59
2023/03/02 06:00:19;;;;;;;33.95;18.33;;;3.90;77.00;;;;;;5015166;28;20115;-57
2023/03/02 06:02:45;;;;;;;37.42;18.30;;;3.90;77.10;;;;;;5016121;28;20052;-59
2023/03/02 06:05:15;;;;;;;39.60;20.20;;;3.90;77.00;;;;;;5015870;28;20401;-60
2023/03/02 06:07:40;;;;;;;38.55;19.80;;;3.90;77.10;;;;;;5018306;28;20056;-56
2023/03/02 06:10:07;;;;;;;36.90;19.42;;;3.90;77.10;;;;;;5017163;28;20042;-59
2023/03/02 06:12:33;;;;;;;39.72;19.48;;;3.90;77.10;;;;;;5016753;28;20074;-60
2023/03/02 06:14:59;;;;;;;39.53;20.17;;;4.00;77.10;;;;;;5016369;28;20544;-58
2023/03/02 06:17:25;;;;;;;41.85;21.13;;;3.90;77.10;;;;;;5016896;28;20034;-60
2023/03/02 06:19:51;;;;;;;41.35;21.58;;;3.90;77.10;;;;;;5013493;28;20041;-60
2023/03/02 06:22:17;;;;;;;42.75;22.58;;;4.00;77.10;;;;;;5018853;28;20519;-60
2023/03/02 06:24:42;;;;;;;40.47;21.48;;;4.00;77.10;;;;;;5014069;28;20041;-59
2023/03/02 06:27:08;;;;;;;45.28;22.70;;;4.00;77.00;;;;;;5017403;28;20052;-60
2023/03/02 06:29:34;;;;;;;42.72;21.77;;;4.00;77.10;;;;;;5017180;28;20673;-61
2023/03/02 06:31:59;;;;;;;40.83;22.00;;;4.00;77.10;;;;;;5013594;28;20049;-61
2023/03/02 06:34:25;;;;;;;43.85;23.23;;;4.00;77.10;;;;;;5015370;28;20036;-60
2023/03/02 06:36:51;;;;;;;42.50;22.33;;;4.00;77.20;;;;;;5014832;28;20049;-59
2023/03/02 06:39:16;;;;;;;46.15;22.58;;;4.00;77.20;;;;;;5013640;28;20187;-57
2023/03/02 06:41:46;;;;;;;44.05;23.10;;;4.00;77.30;;;;;;5017412;28;20030;-59
2023/03/02 06:44:12;;;;;;;45.40;22.90;;;4.00;77.30;;;;;;5011682;28;20513;-61
2023/03/02 06:46:39;;;;;;;40.10;20.98;;;4.00;77.40;;;;;;5015131;28;20045;-60
2023/03/02 06:49:05;;;;;;;36.47;20.48;;;4.00;77.30;;;;;;5017176;28;20095;-59
2023/03/02 06:51:31;;;;;;;45.75;21.35;;;4.00;77.30;;;;;;5014755;28;20045;-59
2023/03/02 06:53:57;;;;;;;39.00;19.80;;;4.00;77.30;;;;;;5015096;28;20489;-60
2023/03/02 06:56:23;;;;;;;37.85;19.75;;;4.00;77.30;;;;;;5013949;28;20387;-61
2023/03/02 06:58:48;;;;;;;37.20;19.95;;;4.00;77.40;;;;;;5014476;28;20044;-61
2023/03/02 07:01:15;;;;;;;35.15;19.25;;;4.00;77.30;;;;;;5013962;28;20038;-61
2023/03/02 07:03:41;;;;;;;42.10;19.95;;;4.00;77.40;;;;;;5015741;28;20037;-61
2023/03/02 07:06:06;;;;;;;37.53;19.50;;;4.00;77.40;;;;;;5012421;28;20120;-61
2023/03/02 07:08:32;;;;;;;38.20;20.10;;;4.00;77.40;;;;;;5013908;28;20041;-60
2023/03/02 07:10:58;;;;;;;41.60;20.52;;;4.00;77.40;;;;;;5012620;28;20045;-59
2023/03/02 07:13:23;;;;;;;41.45;20.20;;;4.00;77.40;;;;;;5012379;28;20132;-57
2023/03/02 07:15:49;;;;;;;42.05;21.70;;;4.00;77.40;;;;;;5013150;28;20402;-60
2023/03/02 07:18:15;;;;;;;44.67;23.70;;;4.10;77.60;;;;;;5015904;28;20030;-58
2023/03/02 07:20:40;;;;;;;44.20;22.33;;;4.10;77.50;;;;;;5011802;28;20417;-60
2023/03/02 07:23:06;;;;;;;45.65;22.65;;;4.10;77.60;;;;;;5012254;28;20073;-60
2023/03/02 07:25:31;;;;;;;35.95;19.35;;;4.00;77.60;;;;;;5011467;28;20041;-61
2023/03/02 07:27:57;;;;;;;40.83;19.35;;;4.10;77.70;;;;;;5012050;28;20108;-61
2023/03/02 07:30:24;;;;;;;35.95;18.13;;;4.10;77.70;;;;;;5012025;28;20041;-60
2023/03/02 07:32:50;;;;;;;31.05;17.95;;;4.10;77.60;;;;;;5013484;28;20410;-59
2023/03/02 07:35:16;;;;;;;34.05;18.05;;;4.10;77.70;;;;;;5013461;28;20026;-61
2023/03/02 07:37:42;;;;;;;34.10;18.75;;;4.10;77.70;;;;;;5013294;28;20068;-59
2023/03/02 07:40:10;;;;;;;41.22;20.98;;;4.10;77.80;;;;;;5014184;28;20033;-58
2023/03/02 07:42:36;;;;;;;40.22;20.05;;;4.10;77.80;;;;;;5011057;28;20053;-60
2023/03/02 07:45:03;;;;;;;40.63;21.75;;;4.10;77.80;;;;;;5011630;28;20115;-61
2023/03/02 07:47:29;;;;;;;41.08;21.60;;;4.10;77.70;;;;;;5013315;28;20033;-60
2023/03/02 07:49:54;;;;;;;46.22;20.98;;;4.10;77.70;;;;;;5011352;28;20049;-61
2023/03/02 07:52:20;;;;;;;38.88;19.55;;;4.10;77.60;;;;;;5012771;28;20026;-61
2023/03/02 07:54:45;;;;;;;39.65;18.88;;;4.10;77.60;;;;;;5012984;28;20131;-59
2023/03/02 07:57:14;;;;;;;37.15;19.10;;;4.10;77.60;;;;;;5013055;28;20117;-60
2023/03/02 07:59:41;;;;;;;37.13;17.52;;;4.10;77.70;;;;;;5013440;28;20070;-59
2023/03/02 08:02:15;;;;;;;36.28;18.52;;;4.10;77.80;;;;;;5011148;28;20049;-60
2023/03/02 08:04:42;;;;;;;;;;;4.10;77.80;;;;;;5013172;28;20030;-59
2023/03/02 08:07:07;;;;;;;29.70;15.52;;;4.10;78.30;;;;;;5013997;28;19917;-59
2023/03/02 08:09:33;;;;;;;31.65;16.38;;;4.10;77.50;;;;;;5014179;28;20052;-59
2023/03/02 08:11:59;;;;;;;40.22;18.20;;;4.10;77.70;;;;;;5014596;28;20058;-59
2023/03/02 08:14:24;;;;;;;45.35;25.58;;;4.10;77.80;;;;;;5013863;28;20057;-60
2023/03/02 08:16:51;;;;;;;34.70;18.05;;;4.10;77.60;;;;;;5014571;28;20315;-59
2023/03/02 08:19:17;;;;;;;33.45;17.95;;;4.10;77.70;;;;;;5012313;28;20041;-60
2023/03/02 08:21:43;;;;;;;36.00;18.13;;;4.10;77.80;;;;;;5010351;28;20044;-60
2023/03/02 08:24:09;;;;;;;36.67;19.45;;;4.10;78.00;;;;;;5014887;28;20025;-60
2023/03/02 08:26:35;;;;;;;42.90;20.27;;;4.10;78.00;;;;;;5011916;28;20045;-59
2023/03/02 08:29:00;;;;;;;36.47;20.00;;;4.00;78.00;;;;;;5011921;28;20034;-60
2023/03/02 08:31:26;;;;;;;41.03;20.85;;;4.00;78.10;;;;;;5010759;28;20030;-60
2023/03/02 08:33:52;;;;;;;34.50;18.45;;;4.00;78.20;;;;;;5012036;28;20045;-60
2023/03/02 08:36:18;;;;;;;38.47;19.70;;;3.90;78.30;;;;;;5012322;28;20033;-59
2023/03/02 08:38:45;;;;;;;39.97;19.17;;;3.90;78.50;;;;;;5011066;28;20037;-61
2023/03/02 08:41:14;;;;;;;41.75;19.75;;;3.90;78.70;;;;;;5012707;28;20070;-60
2023/03/02 08:43:40;;;;;;;41.53;20.98;;;3.90;78.70;;;;;;5011350;28;20433;-60
2023/03/02 08:46:06;;;;;;;37.97;20.17;;;3.90;78.60;;;;;;5013465;28;20128;-60
2023/03/02 08:48:32;;;;;;;41.25;20.55;;;3.90;79.60;;;;;;5011071;28;20036;-60
2023/03/02 08:51:10;;;;;;;43.22;21.33;;;4.00;78.90;;;;;;5014519;28;20037;-61
2023/03/02 08:53:39;;;;;;;40.92;20.80;;;4.00;79.00;;;;;;5018588;28;20045;-60
2023/03/02 08:56:14;;;;;;;39.75;19.48;;;4.00;78.80;;;;;;5021140;28;20041;-61
2023/03/02 08:58:39;;;;;;;;;;;4.00;78.80;;;;;;5017420;28;20042;-61
2023/03/02 09:01:05;;;;;;;40.03;18.50;;;4.10;79.20;;;;;;5017282;28;19983;-60
2023/03/02 09:03:30;;;;;;;40.67;20.08;;;4.10;78.40;;;;;;5013911;28;20490;-61
2023/03/02 09:05:56;;;;;;;44.88;21.52;;;4.20;78.50;;;;;;5018771;28;20037;-61
2023/03/02 09:08:22;;;;;;;44.65;21.55;;;4.20;78.40;;;;;;5017284;28;20033;-61
2023/03/02 09:10:47;;;;;;;45.05;21.60;;;4.20;78.40;;;;;;5017011;28;20083;-61
2023/03/02 09:13:13;;;;;;;43.17;21.77;;;4.20;78.40;;;;;;5017422;28;20079;-61
2023/03/02 09:15:38;;;;;;;42.63;21.55;;;4.20;78.50;;;;;;5020305;28;20405;-60
2023/03/02 09:18:04;;;;;;;48.97;22.50;;;4.20;78.50;;;;;;5020040;28;20044;-59
2023/03/02 09:20:30;;;;;;;45.08;22.50;;;4.30;78.60;;;;;;5020110;28;20041;-61
2023/03/02 09:22:55;;;;;;;44.22;21.63;;;4.30;78.30;;;;;;5018012;28;20067;-61
2023/03/02 09:25:21;;;;;;;44.45;21.75;;;4.30;78.40;;;;;;5021767;28;20083;-61
2023/03/02 09:27:46;;;;;;;45.40;22.17;;;4.30;78.30;;;;;;5018354;28;20092;-59
2023/03/02 09:30:13;;;;;;;43.13;21.08;;;4.30;78.30;;;;;;5017185;28;20034;-57
2023/03/02 09:32:39;;;;;;;43.92;21.70;;;4.30;78.30;;;;;;5020408;28;20030;-59
2023/03/02 09:35:05;;;;;;;40.20;20.52;;;4.40;78.50;;;;;;5018292;28;20036;-60
2023/03/02 09:37:31;;;;;;;44.75;21.02;;;4.40;78.30;;;;;;5019268;28;20025;-60
2023/03/02 09:39:56;;;;;;;42.42;21.35;;;4.40;78.30;;;;;;5018523;28;20100;-59
2023/03/02 09:42:54;;;;;;;48.53;23.48;;;4.40;78.30;;;;;;5019388;28;20029;-59
2023/03/02 09:45:53;;;;;;;45.60;21.75;;;4.50;78.50;;;;;;5005984;28;20171;-61
2023/03/02 09:48:43;;;;;;;43.72;21.63;;;4.50;78.30;;;;;;5014948;28;20034;-57
2023/03/02 09:51:31;;;;;;;42.03;20.98;;;4.60;78.20;;;;;;5019172;28;20048;-60
2023/03/02 09:54:24;;;;;;;46.88;22.60;;;4.60;78.20;;;;;;5020110;28;20041;-60
2023/03/02 09:56:53;;;;;;;43.05;20.98;;;4.70;78.10;;;;;;5015454;28;20037;-61
2023/03/02 09:59:19;;;;;;;44.03;22.33;;;4.70;77.80;;;;;;5016652;28;20572;-59
2023/03/02 10:01:51;;;;;;;42.22;21.83;;;4.70;77.70;;;;;;5019213;28;20050;-60
2023/03/02 10:04:43;;;;;;;46.05;22.75;;;4.70;77.60;;;;;;5016626;28;20295;-61
2023/03/02 10:07:18;;;;;;;44.28;21.63;;;4.70;77.70;;;;;;5014011;28;20441;-62
2023/03/02 10:09:45;;;;;;;45.28;21.38;;;4.70;77.50;;;;;;5013348;28;20041;-59
2023/03/02 10:12:35;;;;;;;42.58;21.63;;;4.70;77.50;;;;;;5013261;28;20041;-60
2023/03/02 10:15:14;;;;;;;43.15;20.35;;;4.70;77.60;;;;;;5015622;28;20090;-60
2023/03/02 10:18:05;;;;;;;45.45;21.77;;;4.80;77.40;;;;;;5015768;28;20103;-61
2023/03/02 10:20:45;;;;;;;43.05;21.73;;;4.80;77.70;;;;;;5012681;28;20034;-60
2023/03/02 10:23:31;;;;;;;44.95;21.98;;;4.70;77.60;;;;;;5015813;28;20556;-59
2023/03/02 10:26:44;;;;;;;41.55;21.00;;;4.80;77.60;;;;;;5015920;28;20046;-61
2023/03/02 10:29:22;;;;;;;42.05;20.73;;;4.80;77.60;;;;;;4980864;28;20674;-60
2023/03/02 10:31:51;;;;;;;44.00;21.55;;;4.80;77.40;;;;;;5007163;28;20037;-60
2023/03/02 10:34:17;;;;;;;40.60;19.85;;;4.80;77.30;;;;;;5016319;28;20036;-59
2023/03/02 10:36:46;;;;;;;41.22;20.48;;;4.80;78.30;;;;;;5014218;28;20448;-61
2023/03/02 10:39:14;;;;;;;43.30;21.23;;;4.80;77.40;;;;;;5014711;28;20040;-60
2023/03/02 10:41:55;;;;;;;43.53;22.63;;;4.80;77.40;;;;;;5015949;28;20037;-60
2023/03/02 10:44:27;;;;;;;41.05;20.52;;;4.90;77.50;;;;;;5013547;28;20574;-60
2023/03/02 10:46:52;;;;;;;44.30;21.38;;;4.90;77.40;;;;;;5014302;28;20057;-60
2023/03/02 10:49:35;;;;;;;42.78;21.05;;;4.90;77.50;;;;;;5015650;28;20030;-62
2023/03/02 10:52:04;;;;;;;41.53;21.23;;;4.90;77.40;;;;;;5014871;28;20588;-62
2023/03/02 10:54:35;;;;;;;44.83;21.38;;;5.00;77.40;;;;;;5017445;28;20048;-62
2023/03/02 10:57:03;;;;;;;37.55;19.88;;;5.00;77.10;;;;;;5017295;28;20048;-61
2023/03/02 10:59:44;;;;;;;40.58;21.23;;;5.00;77.10;;;;;;5018131;28;20226;-61
2023/03/02 11:02:26;;;;;;;41.10;21.33;;;5.00;77.30;;;;;;5015533;28;20033;-61
2023/03/02 11:04:54;;;;;;;39.30;20.55;;;5.00;77.10;;;;;;5014756;28;20034;-60
2023/03/02 11:07:23;;;;;;;37.72;20.05;;;5.00;77.10;;;;;;5017905;28;20672;-61
2023/03/02 11:10:02;;;;;;;38.75;20.73;;;5.00;77.10;;;;;;5015936;28;20132;-60
2023/03/02 11:12:29;;;;;;;41.10;19.85;;;5.10;77.00;;;;;;5015740;28;20413;-60
2023/03/02 11:15:12;;;;;;;37.58;19.30;;;5.10;77.00;;;;;;5015786;28;20034;-61
2023/03/02 11:17:39;;;;;;;36.72;19.65;;;5.10;77.10;;;;;;5012422;28;20205;-60
2023/03/02 11:20:29;;;;;;;41.75;20.80;;;5.10;77.00;;;;;;5017220;28;20040;-59
2023/03/02 11:23:25;;;;;;;46.58;20.80;;;5.20;77.30;;;;;;5017881;28;20091;-61
2023/03/02 11:25:57;;;;;;;39.45;20.48;;;5.20;77.20;;;;;;5018325;28;20061;-61
2023/03/02 11:28:24;;;;;;;40.58;20.60;;;5.20;77.10;;;;;;5016946;28;20029;-60
2023/03/02 11:30:54;;;;;;;38.08;19.58;;;5.20;77.10;;;;;;5015465;28;20493;-61
2023/03/02 11:33:25;;;;;;;38.70;19.95;;;5.30;76.90;;;;;;5010205;28;20038;-60
2023/03/02 11:35:59;;;;;;;37.80;19.77;;;5.30;76.90;;;;;;5018228;28;20697;-61
2023/03/02 11:38:28;;;;;;;37.53;19.27;;;5.30;76.70;;;;;;5017183;28;20045;-60
2023/03/02 11:41:05;;;;;;;39.25;20.70;;;5.40;76.70;;;;;;5015867;28;20230;-62
2023/03/02 11:43:31;;;;;;;38.28;20.17;;;5.40;76.60;;;;;;5016512;28;20048;-62
2023/03/02 11:46:03;;;;;;;39.38;20.20;;;5.40;76.40;;;;;;5017301;28;20041;-62
2023/03/02 11:48:32;;;;;;;40.30;20.95;;;5.40;76.40;;;;;;5014065;28;22070;-60
2023/03/02 11:51:11;;;;;;;41.58;20.83;;;5.40;76.20;;;;;;5017252;28;20497;-59
2023/03/02 11:53:42;;;;;;;41.63;21.60;;;5.40;76.20;;;;;;5015857;28;20458;-61
2023/03/02 11:56:08;;;;;;;40.95;21.08;;;5.40;76.20;;;;;;5013761;28;20037;-62
2023/03/02 11:58:34;;;;;;;39.38;20.25;;;5.30;76.10;;;;;;5015690;28;20033;-61
2023/03/02 12:01:01;;;;;;;38.83;20.67;;;5.30;76.20;;;;;;5016396;28;20121;-59
2023/03/02 12:03:30;;;;;;;41.80;21.25;;;5.30;76.30;;;;;;5016284;28;20064;-60
2023/03/02 12:06:21;;;;;;;41.05;20.92;;;5.30;76.30;;;;;;5015863;28;20163;-60
2023/03/02 12:08:49;;;;;;;40.72;20.00;;;5.30;76.30;;;;;;5012535;28;20458;-60
2023/03/02 12:11:17;;;;;;;45.80;21.10;;;5.30;76.40;;;;;;5015015;28;20120;-59
2023/03/02 12:13:43;;;;;;;40.83;21.23;;;5.30;76.50;;;;;;5014652;28;20048;-60
2023/03/02 12:16:39;;;;;;;43.08;21.40;;;5.30;76.60;;;;;;5016531;28;20037;-61
2023/03/02 12:19:24;;;;;;;46.03;21.52;;;5.30;76.70;;;;;;5015254;28;20038;-61
2023/03/02 12:22:05;;;;;;;43.13;21.13;;;5.30;76.70;;;;;;5015868;28;20053;-59
2023/03/02 12:24:34;;;;;;;58.97;22.58;;;5.30;77.60;;;;;;5013988;28;20305;-60
2023/03/02 12:27:19;;;;;;;45.47;21.98;;;5.30;76.70;;;;;;5018106;28;20036;-61
2023/03/02 12:29:54;;;;;;;43.33;21.40;;;5.30;76.70;;;;;;5016438;28;20056;-61
2023/03/02 12:32:22;;;;;;;;;;;5.30;76.70;;;;;;5015666;28;20107;-59
2023/03/02 12:35:00;;;;;;;41.70;19.55;;;5.30;76.90;;;;;;5015410;28;19921;-60
2023/03/02 12:37:30;;;;;;;45.28;21.55;;;5.30;76.60;;;;;;5017545;28;20150;-61
2023/03/02 12:40:02;;;;;;;43.53;22.23;;;5.30;76.60;;;;;;5013291;28;20038;-61
2023/03/02 12:42:42;;;;;;;40.47;21.45;;;5.40;77.50;;;;;;5014329;28;20152;-60
2023/03/02 12:45:32;;;;;;;41.20;22.30;;;5.40;76.70;;;;;;5015431;28;20034;-61
2023/03/02 12:48:04;;;;;;;41.13;21.38;;;5.40;76.70;;;;;;5013989;28;20455;-59